sensor_id;sensor_type;location;lat;lon;timestamp;P1;durP1;ratioP1;P2;durP2;ratioP2
64197;SDS011;50512;53.666;9.700;2024-02-23T00:01:03;9.43;;;1.88;;
64197;SDS011;50512;53.666;9.700;2024-02-23T00:03:30;2.22;;;1.20;;
64197;SDS011;50512;53.666;9.700;2024-02-23T00:05:58;3.72;;;1.17;;
64197;SDS011;50512;53.666;9.700;2024-02-23T00:08:25;2.20;;;1.10;;
64197;SDS011;50512;53.666;9.700;2024-02-23T00:10:51;2.58;;;1.30;;
64197;SDS011;50512;53.666;9.700;2024-02-23T00:13:17;3.75;;;1.30;;
64197;SDS011;50512;53.666;9.700;2024-02-23T00:15:44;4.63;;;1.50;;
64197;SDS011;50512;53.666;9.700;2024-02-23T00:18:10;3.28;;;1.30;;
64197;SDS011;50512;53.666;9.700;2024-02-23T00:20:38;5.00;;;1.63;;
64197;SDS011;50512;53.666;9.700;2024-02-23T00:23:06;5.30;;;1.58;;
64197;SDS011;50512;53.666;9.700;2024-02-23T00:25:32;5.70;;;2.15;;
64197;SDS011;50512;53.666;9.700;2024-02-23T00:27:58;6.57;;;2.33;;
64197;SDS011;50512;53.666;9.700;2024-02-23T00:30:25;5.97;;;2.35;;
64197;SDS011;50512;53.666;9.700;2024-02-23T00:32:52;5.90;;;2.53;;
64197;SDS011;50512;53.666;9.700;2024-02-23T00:35:18;4.28;;;2.13;;
64197;SDS011;50512;53.666;9.700;2024-02-23T00:37:45;5.75;;;2.35;;
64197;SDS011;50512;53.666;9.700;2024-02-23T00:40:13;5.70;;;1.88;;
64197;SDS011;50512;53.666;9.700;2024-02-23T00:42:40;3.40;;;1.58;;
64197;SDS011;50512;53.666;9.700;2024-02-23T00:45:06;5.88;;;1.88;;
64197;SDS011;50512;53.666;9.700;2024-02-23T00:47:33;1.23;;;0.95;;
64197;SDS011;50512;53.666;9.700;2024-02-23T00:50:01;3.60;;;1.45;;
64197;SDS011;50512;53.666;9.700;2024-02-23T00:52:28;3.20;;;1.65;;
64197;SDS011;50512;53.666;9.700;2024-02-23T00:54:54;2.47;;;1.30;;
64197;SDS011;50512;53.666;9.700;2024-02-23T00:57:22;2.72;;;1.00;;
64197;SDS011;50512;53.666;9.700;2024-02-23T00:59:54;1.88;;;1.00;;
64197;SDS011;50512;53.666;9.700;2024-02-23T01:02:21;1.73;;;1.05;;
64197;SDS011;50512;53.666;9.700;2024-02-23T01:04:47;1.67;;;1.00;;
64197;SDS011;50512;53.666;9.700;2024-02-23T01:07:14;2.50;;;0.82;;
64197;SDS011;50512;53.666;9.700;2024-02-23T01:09:40;0.77;;;0.47;;
64197;SDS011;50512;53.666;9.700;2024-02-23T01:12:07;0.73;;;0.68;;
64197;SDS011;50512;53.666;9.700;2024-02-23T01:14:35;0.50;;;0.40;;
64197;SDS011;50512;53.666;9.700;2024-02-23T01:17:01;3.95;;;0.57;;
64197;SDS011;50512;53.666;9.700;2024-02-23T01:19:28;0.57;;;0.40;;
64197;SDS011;50512;53.666;9.700;2024-02-23T01:21:54;0.75;;;0.50;;
64197;SDS011;50512;53.666;9.700;2024-02-23T01:24:24;0.50;;;0.50;;
64197;SDS011;50512;53.666;9.700;2024-02-23T01:26:52;1.70;;;0.43;;
64197;SDS011;50512;53.666;9.700;2024-02-23T01:29:19;0.85;;;0.45;;
64197;SDS011;50512;53.666;9.700;2024-02-23T01:31:47;0.75;;;0.32;;
64197;SDS011;50512;53.666;9.700;2024-02-23T01:34:13;0.90;;;0.40;;
64197;SDS011;50512;53.666;9.700;2024-02-23T01:36:40;2.08;;;0.30;;
64197;SDS011;50512;53.666;9.700;2024-02-23T01:39:07;2.38;;;0.40;;
64197;SDS011;50512;53.666;9.700;2024-02-23T01:41:33;0.57;;;0.30;;
64197;SDS011;50512;53.666;9.700;2024-02-23T01:44:00;0.82;;;0.30;;
64197;SDS011;50512;53.666;9.700;2024-02-23T01:46:27;0.20;;;0.20;;
64197;SDS011;50512;53.666;9.700;2024-02-23T01:48:55;0.20;;;0.20;;
64197;SDS011;50512;53.666;9.700;2024-02-23T01:51:22;2.92;;;0.35;;
64197;SDS011;50512;53.666;9.700;2024-02-23T01:53:49;0.47;;;0.40;;
64197;SDS011;50512;53.666;9.700;2024-02-23T01:56:16;1.38;;;0.25;;
64197;SDS011;50512;53.666;9.700;2024-02-23T01:58:44;0.20;;;0.20;;
64197;SDS011;50512;53.666;9.700;2024-02-23T02:01:11;0.15;;;0.15;;
64197;SDS011;50512;53.666;9.700;2024-02-23T02:03:38;1.98;;;0.50;;
64197;SDS011;50512;53.666;9.700;2024-02-23T02:06:06;0.47;;;0.40;;
64197;SDS011;50512;53.666;9.700;2024-02-23T02:08:33;0.40;;;0.40;;
64197;SDS011;50512;53.666;9.700;2024-02-23T02:11:00;0.30;;;0.30;;
64197;SDS011;50512;53.666;9.700;2024-02-23T02:13:27;0.65;;;0.32;;
64197;SDS011;50512;53.666;9.700;2024-02-23T02:15:54;0.95;;;0.40;;
64197;SDS011;50512;53.666;9.700;2024-02-23T02:18:20;1.77;;;0.30;;
64197;SDS011;50512;53.666;9.700;2024-02-23T02:20:51;0.20;;;0.20;;
64197;SDS011;50512;53.666;9.700;2024-02-23T02:23:20;2.35;;;0.20;;
64197;SDS011;50512;53.666;9.700;2024-02-23T02:25:51;1.92;;;0.55;;
64197;SDS011;50512;53.666;9.700;2024-02-23T02:28:18;0.28;;;0.28;;
64197;SDS011;50512;53.666;9.700;2024-02-23T02:30:45;1.48;;;0.20;;
64197;SDS011;50512;53.666;9.700;2024-02-23T02:33:11;0.40;;;0.40;;
64197;SDS011;50512;53.666;9.700;2024-02-23T02:35:38;0.30;;;0.30;;
64197;SDS011;50512;53.666;9.700;2024-02-23T02:38:04;2.35;;;0.75;;
64197;SDS011;50512;53.666;9.700;2024-02-23T02:40:32;3.47;;;0.50;;
64197;SDS011;50512;53.666;9.700;2024-02-23T02:42:58;2.72;;;0.60;;
64197;SDS011;50512;53.666;9.700;2024-02-23T02:45:25;1.10;;;0.50;;
64197;SDS011;50512;53.666;9.700;2024-02-23T02:47:51;1.15;;;0.40;;
64197;SDS011;50512;53.666;9.700;2024-02-23T02:50:18;1.30;;;0.40;;
64197;SDS011;50512;53.666;9.700;2024-02-23T02:52:44;1.15;;;0.40;;
64197;SDS011;50512;53.666;9.700;2024-02-23T02:55:11;2.05;;;0.57;;
64197;SDS011;50512;53.666;9.700;2024-02-23T02:57:39;0.40;;;0.35;;
64197;SDS011;50512;53.666;9.700;2024-02-23T03:00:09;0.30;;;0.30;;
64197;SDS011;50512;53.666;9.700;2024-02-23T03:02:36;2.45;;;0.60;;
64197;SDS011;50512;53.666;9.700;2024-02-23T03:05:03;0.35;;;0.20;;
64197;SDS011;50512;53.666;9.700;2024-02-23T03:07:30;0.77;;;0.40;;
64197;SDS011;50512;53.666;9.700;2024-02-23T03:09:56;1.30;;;0.60;;
64197;SDS011;50512;53.666;9.700;2024-02-23T03:12:23;13.55;;;2.35;;
64197;SDS011;50512;53.666;9.700;2024-02-23T03:14:50;2.47;;;0.47;;
64197;SDS011;50512;53.666;9.700;2024-02-23T03:17:17;2.22;;;0.73;;
64197;SDS011;50512;53.666;9.700;2024-02-23T03:19:43;2.58;;;0.73;;
64197;SDS011;50512;53.666;9.700;2024-02-23T03:22:10;4.05;;;0.80;;
64197;SDS011;50512;53.666;9.700;2024-02-23T03:24:36;3.35;;;1.15;;
64197;SDS011;50512;53.666;9.700;2024-02-23T03:27:03;6.32;;;2.22;;
64197;SDS011;50512;53.666;9.700;2024-02-23T03:29:29;3.22;;;0.90;;
64197;SDS011;50512;53.666;9.700;2024-02-23T03:31:57;3.45;;;1.02;;
64197;SDS011;50512;53.666;9.700;2024-02-23T03:34:24;3.83;;;1.40;;
64197;SDS011;50512;53.666;9.700;2024-02-23T03:36:50;2.13;;;0.90;;
64197;SDS011;50512;53.666;9.700;2024-02-23T03:39:17;1.20;;;0.88;;
64197;SDS011;50512;53.666;9.700;2024-02-23T03:41:43;3.53;;;1.05;;
64197;SDS011;50512;53.666;9.700;2024-02-23T03:44:09;3.00;;;1.00;;
64197;SDS011;50512;53.666;9.700;2024-02-23T03:46:36;2.95;;;1.00;;
64197;SDS011;50512;53.666;9.700;2024-02-23T03:49:04;4.75;;;1.00;;
64197;SDS011;50512;53.666;9.700;2024-02-23T03:51:30;2.20;;;1.10;;
64197;SDS011;50512;53.666;9.700;2024-02-23T03:53:57;2.25;;;0.95;;
64197;SDS011;50512;53.666;9.700;2024-02-23T03:56:24;10.55;;;2.97;;
64197;SDS011;50512;53.666;9.700;2024-02-23T03:58:50;4.75;;;1.50;;
64197;SDS011;50512;53.666;9.700;2024-02-23T04:01:17;2.80;;;0.70;;
64197;SDS011;50512;53.666;9.700;2024-02-23T04:03:43;3.17;;;1.15;;
64197;SDS011;50512;53.666;9.700;2024-02-23T04:06:11;2.70;;;1.00;;
64197;SDS011;50512;53.666;9.700;2024-02-23T04:08:37;2.38;;;0.80;;
64197;SDS011;50512;53.666;9.700;2024-02-23T04:11:04;4.32;;;1.27;;
64197;SDS011;50512;53.666;9.700;2024-02-23T04:13:30;3.17;;;1.00;;
64197;SDS011;50512;53.666;9.700;2024-02-23T04:15:57;7.95;;;1.67;;
64197;SDS011;50512;53.666;9.700;2024-02-23T04:18:23;8.65;;;1.02;;
64197;SDS011;50512;53.666;9.700;2024-02-23T04:20:50;10.98;;;1.50;;
64197;SDS011;50512;53.666;9.700;2024-02-23T04:23:17;4.28;;;1.10;;
64197;SDS011;50512;53.666;9.700;2024-02-23T04:25:44;3.92;;;1.48;;
64197;SDS011;50512;53.666;9.700;2024-02-23T04:28:10;8.25;;;1.27;;
64197;SDS011;50512;53.666;9.700;2024-02-23T04:30:37;5.13;;;1.48;;
64197;SDS011;50512;53.666;9.700;2024-02-23T04:33:03;3.50;;;1.25;;
64197;SDS011;50512;53.666;9.700;2024-02-23T04:35:30;7.10;;;2.13;;
64197;SDS011;50512;53.666;9.700;2024-02-23T04:37:56;7.45;;;2.13;;
64197;SDS011;50512;53.666;9.700;2024-02-23T04:40:24;7.80;;;2.38;;
64197;SDS011;50512;53.666;9.700;2024-02-23T04:42:51;7.05;;;1.98;;
64197;SDS011;50512;53.666;9.700;2024-02-23T04:45:17;9.90;;;2.10;;
64197;SDS011;50512;53.666;9.700;2024-02-23T04:47:44;7.63;;;2.67;;
64197;SDS011;50512;53.666;9.700;2024-02-23T04:50:11;8.50;;;2.10;;
64197;SDS011;50512;53.666;9.700;2024-02-23T04:52:38;5.28;;;2.40;;
64197;SDS011;50512;53.666;9.700;2024-02-23T04:55:05;10.15;;;3.20;;
64197;SDS011;50512;53.666;9.700;2024-02-23T04:57:33;12.30;;;3.92;;
64197;SDS011;50512;53.666;9.700;2024-02-23T04:59:59;8.32;;;2.97;;
64197;SDS011;50512;53.666;9.700;2024-02-23T05:02:27;13.85;;;3.33;;
64197;SDS011;50512;53.666;9.700;2024-02-23T05:04:58;12.85;;;4.68;;
64197;SDS011;50512;53.666;9.700;2024-02-23T05:07:25;11.50;;;4.20;;
64197;SDS011;50512;53.666;9.700;2024-02-23T05:09:51;13.68;;;3.58;;
64197;SDS011;50512;53.666;9.700;2024-02-23T05:12:18;12.18;;;4.80;;
64197;SDS011;50512;53.666;9.700;2024-02-23T05:14:45;20.95;;;5.25;;
64197;SDS011;50512;53.666;9.700;2024-02-23T05:17:12;12.63;;;4.07;;
64197;SDS011;50512;53.666;9.700;2024-02-23T05:19:38;9.65;;;3.20;;
64197;SDS011;50512;53.666;9.700;2024-02-23T05:22:05;20.60;;;4.43;;
64197;SDS011;50512;53.666;9.700;2024-02-23T05:24:31;6.90;;;2.92;;
64197;SDS011;50512;53.666;9.700;2024-02-23T05:26:58;9.07;;;2.97;;
64197;SDS011;50512;53.666;9.700;2024-02-23T05:29:27;17.27;;;4.13;;
64197;SDS011;50512;53.666;9.700;2024-02-23T05:31:55;7.35;;;3.00;;
64197;SDS011;50512;53.666;9.700;2024-02-23T05:34:21;9.52;;;3.92;;
64197;SDS011;50512;53.666;9.700;2024-02-23T05:36:47;14.75;;;4.28;;
64197;SDS011;50512;53.666;9.700;2024-02-23T05:39:15;14.07;;;3.78;;
64197;SDS011;50512;53.666;9.700;2024-02-23T05:41:42;14.63;;;4.70;;
64197;SDS011;50512;53.666;9.700;2024-02-23T05:44:09;7.57;;;2.85;;
64197;SDS011;50512;53.666;9.700;2024-02-23T05:46:36;10.00;;;2.92;;
64197;SDS011;50512;53.666;9.700;2024-02-23T05:49:04;11.80;;;3.28;;
64197;SDS011;50512;53.666;9.700;2024-02-23T05:51:31;9.65;;;2.95;;
64197;SDS011;50512;53.666;9.700;2024-02-23T05:53:57;5.60;;;2.30;;
64197;SDS011;50512;53.666;9.700;2024-02-23T05:56:24;14.00;;;3.97;;
64197;SDS011;50512;53.666;9.700;2024-02-23T05:58:50;11.35;;;3.88;;
64197;SDS011;50512;53.666;9.700;2024-02-23T06:01:17;10.50;;;3.42;;
64197;SDS011;50512;53.666;9.700;2024-02-23T06:03:44;7.72;;;2.85;;
64197;SDS011;50512;53.666;9.700;2024-02-23T06:06:12;7.90;;;2.83;;
64197;SDS011;50512;53.666;9.700;2024-02-23T06:08:39;13.43;;;2.83;;
64197;SDS011;50512;53.666;9.700;2024-02-23T06:11:05;6.55;;;2.55;;
64197;SDS011;50512;53.666;9.700;2024-02-23T06:13:32;11.90;;;3.45;;
64197;SDS011;50512;53.666;9.700;2024-02-23T06:15:59;6.65;;;2.90;;
64197;SDS011;50512;53.666;9.700;2024-02-23T06:18:25;7.43;;;2.38;;
64197;SDS011;50512;53.666;9.700;2024-02-23T06:20:52;7.05;;;2.10;;
64197;SDS011;50512;53.666;9.700;2024-02-23T06:23:20;13.00;;;2.70;;
64197;SDS011;50512;53.666;9.700;2024-02-23T06:25:47;9.00;;;3.28;;
64197;SDS011;50512;53.666;9.700;2024-02-23T06:28:13;10.70;;;2.95;;
64197;SDS011;50512;53.666;9.700;2024-02-23T06:30:39;4.65;;;2.20;;
64197;SDS011;50512;53.666;9.700;2024-02-23T06:33:06;10.52;;;2.85;;
64197;SDS011;50512;53.666;9.700;2024-02-23T06:35:33;12.10;;;4.03;;
64197;SDS011;50512;53.666;9.700;2024-02-23T06:38:00;11.70;;;4.25;;
64197;SDS011;50512;53.666;9.700;2024-02-23T06:40:27;15.70;;;3.85;;
64197;SDS011;50512;53.666;9.700;2024-02-23T06:42:54;8.40;;;3.47;;
64197;SDS011;50512;53.666;9.700;2024-02-23T06:45:20;13.07;;;4.95;;
64197;SDS011;50512;53.666;9.700;2024-02-23T06:47:50;10.30;;;3.65;;
64197;SDS011;50512;53.666;9.700;2024-02-23T06:50:17;15.30;;;3.88;;
64197;SDS011;50512;53.666;9.700;2024-02-23T06:52:43;13.82;;;5.13;;
64197;SDS011;50512;53.666;9.700;2024-02-23T06:55:12;11.40;;;3.72;;
64197;SDS011;50512;53.666;9.700;2024-02-23T06:57:40;11.13;;;4.03;;
64197;SDS011;50512;53.666;9.700;2024-02-23T07:00:07;10.38;;;3.83;;
64197;SDS011;50512;53.666;9.700;2024-02-23T07:02:35;12.50;;;3.63;;
64197;SDS011;50512;53.666;9.700;2024-02-23T07:05:02;14.38;;;4.85;;
64197;SDS011;50512;53.666;9.700;2024-02-23T07:07:30;7.70;;;3.08;;
64197;SDS011;50512;53.666;9.700;2024-02-23T07:09:58;20.42;;;4.22;;
64197;SDS011;50512;53.666;9.700;2024-02-23T07:12:24;8.38;;;3.30;;
64197;SDS011;50512;53.666;9.700;2024-02-23T07:14:53;12.95;;;3.28;;
64197;SDS011;50512;53.666;9.700;2024-02-23T07:17:20;12.65;;;4.03;;
64197;SDS011;50512;53.666;9.700;2024-02-23T07:19:46;13.75;;;4.75;;
64197;SDS011;50512;53.666;9.700;2024-02-23T07:22:13;9.75;;;3.30;;
64197;SDS011;50512;53.666;9.700;2024-02-23T07:24:41;11.75;;;3.92;;
64197;SDS011;50512;53.666;9.700;2024-02-23T07:27:07;15.27;;;3.72;;
64197;SDS011;50512;53.666;9.700;2024-02-23T07:29:34;17.27;;;4.10;;
64197;SDS011;50512;53.666;9.700;2024-02-23T07:32:02;10.88;;;3.35;;
64197;SDS011;50512;53.666;9.700;2024-02-23T07:34:30;14.20;;;4.72;;
64197;SDS011;50512;53.666;9.700;2024-02-23T07:36:56;18.63;;;3.53;;
64197;SDS011;50512;53.666;9.700;2024-02-23T07:39:23;9.32;;;3.65;;
64197;SDS011;50512;53.666;9.700;2024-02-23T07:41:49;12.52;;;3.72;;
64197;SDS011;50512;53.666;9.700;2024-02-23T07:44:16;9.77;;;3.08;;
64197;SDS011;50512;53.666;9.700;2024-02-23T07:46:43;11.55;;;3.58;;
64197;SDS011;50512;53.666;9.700;2024-02-23T07:49:10;11.63;;;2.83;;
64197;SDS011;50512;53.666;9.700;2024-02-23T07:51:37;16.27;;;3.95;;
64197;SDS011;50512;53.666;9.700;2024-02-23T07:54:03;8.93;;;3.17;;
64197;SDS011;50512;53.666;9.700;2024-02-23T07:56:30;9.75;;;3.00;;
64197;SDS011;50512;53.666;9.700;2024-02-23T07:58:57;10.65;;;3.33;;
64197;SDS011;50512;53.666;9.700;2024-02-23T08:01:24;11.90;;;3.65;;
64197;SDS011;50512;53.666;9.700;2024-02-23T08:03:50;11.93;;;3.90;;
64197;SDS011;50512;53.666;9.700;2024-02-23T08:06:18;10.55;;;2.83;;
64197;SDS011;50512;53.666;9.700;2024-02-23T08:08:45;13.13;;;3.70;;
64197;SDS011;50512;53.666;9.700;2024-02-23T08:11:12;11.90;;;3.85;;
64197;SDS011;50512;53.666;9.700;2024-02-23T08:13:39;14.23;;;4.13;;
64197;SDS011;50512;53.666;9.700;2024-02-23T08:16:06;9.85;;;3.92;;
64197;SDS011;50512;53.666;9.700;2024-02-23T08:18:32;10.43;;;3.92;;
64197;SDS011;50512;53.666;9.700;2024-02-23T08:20:59;9.18;;;3.33;;
64197;SDS011;50512;53.666;9.700;2024-02-23T08:23:28;8.23;;;2.70;;
64197;SDS011;50512;53.666;9.700;2024-02-23T08:25:55;16.35;;;4.50;;
64197;SDS011;50512;53.666;9.700;2024-02-23T08:28:23;8.10;;;3.47;;
64197;SDS011;50512;53.666;9.700;2024-02-23T08:30:49;9.77;;;3.30;;
64197;SDS011;50512;53.666;9.700;2024-02-23T08:33:16;10.77;;;3.28;;
64197;SDS011;50512;53.666;9.700;2024-02-23T08:35:42;11.52;;;2.20;;
64197;SDS011;50512;53.666;9.700;2024-02-23T08:38:09;9.65;;;3.15;;
64197;SDS011;50512;53.666;9.700;2024-02-23T08:40:38;10.23;;;2.60;;
64197;SDS011;50512;53.666;9.700;2024-02-23T08:43:04;8.93;;;3.38;;
64197;SDS011;50512;53.666;9.700;2024-02-23T08:45:31;19.92;;;3.75;;
64197;SDS011;50512;53.666;9.700;2024-02-23T08:47:57;9.32;;;3.17;;
64197;SDS011;50512;53.666;9.700;2024-02-23T08:50:24;11.82;;;3.17;;
64197;SDS011;50512;53.666;9.700;2024-02-23T08:52:50;9.70;;;3.35;;
64197;SDS011;50512;53.666;9.700;2024-02-23T08:55:17;10.10;;;2.72;;
64197;SDS011;50512;53.666;9.700;2024-02-23T08:57:45;11.48;;;3.63;;
64197;SDS011;50512;53.666;9.700;2024-02-23T09:00:12;11.40;;;3.58;;
64197;SDS011;50512;53.666;9.700;2024-02-23T09:02:39;10.35;;;3.72;;
64197;SDS011;50512;53.666;9.700;2024-02-23T09:05:07;23.02;;;4.10;;
64197;SDS011;50512;53.666;9.700;2024-02-23T09:07:34;13.73;;;3.30;;
64197;SDS011;50512;53.666;9.700;2024-02-23T09:10:00;16.02;;;4.38;;
64197;SDS011;50512;53.666;9.700;2024-02-23T09:12:27;11.05;;;3.05;;
64197;SDS011;50512;53.666;9.700;2024-02-23T09:14:54;8.20;;;3.40;;
64197;SDS011;50512;53.666;9.700;2024-02-23T09:17:21;11.95;;;3.38;;
64197;SDS011;50512;53.666;9.700;2024-02-23T09:19:48;12.60;;;2.95;;
64197;SDS011;50512;53.666;9.700;2024-02-23T09:22:15;5.45;;;2.25;;
64197;SDS011;50512;53.666;9.700;2024-02-23T09:24:41;8.25;;;3.20;;
64197;SDS011;50512;53.666;9.700;2024-02-23T09:27:08;8.82;;;2.90;;
64197;SDS011;50512;53.666;9.700;2024-02-23T09:29:34;12.52;;;3.03;;
64197;SDS011;50512;53.666;9.700;2024-02-23T09:32:02;12.25;;;3.58;;
64197;SDS011;50512;53.666;9.700;2024-02-23T09:34:30;11.93;;;4.13;;
64197;SDS011;50512;53.666;9.700;2024-02-23T09:36:56;7.97;;;2.42;;
64197;SDS011;50512;53.666;9.700;2024-02-23T09:39:23;11.85;;;2.88;;
64197;SDS011;50512;53.666;9.700;2024-02-23T09:41:51;8.90;;;2.55;;
64197;SDS011;50512;53.666;9.700;2024-02-23T09:44:20;13.77;;;2.30;;
64197;SDS011;50512;53.666;9.700;2024-02-23T09:46:47;14.18;;;2.63;;
64197;SDS011;50512;53.666;9.700;2024-02-23T09:49:15;4.03;;;1.85;;
64197;SDS011;50512;53.666;9.700;2024-02-23T09:51:42;11.20;;;2.70;;
64197;SDS011;50512;53.666;9.700;2024-02-23T09:54:09;12.65;;;2.80;;
64197;SDS011;50512;53.666;9.700;2024-02-23T09:56:35;17.67;;;2.83;;
64197;SDS011;50512;53.666;9.700;2024-02-23T09:59:03;8.18;;;1.77;;
64197;SDS011;50512;53.666;9.700;2024-02-23T10:01:30;6.22;;;2.55;;
64197;SDS011;50512;53.666;9.700;2024-02-23T10:03:58;14.82;;;3.20;;
64197;SDS011;50512;53.666;9.700;2024-02-23T10:06:27;12.80;;;3.38;;
64197;SDS011;50512;53.666;9.700;2024-02-23T10:08:53;15.32;;;2.78;;
64197;SDS011;50512;53.666;9.700;2024-02-23T10:11:20;10.05;;;2.53;;
64197;SDS011;50512;53.666;9.700;2024-02-23T10:13:47;5.07;;;2.13;;
64197;SDS011;50512;53.666;9.700;2024-02-23T10:16:15;12.07;;;2.50;;
64197;SDS011;50512;53.666;9.700;2024-02-23T10:18:42;11.95;;;2.70;;
64197;SDS011;50512;53.666;9.700;2024-02-23T10:21:08;10.90;;;2.00;;
64197;SDS011;50512;53.666;9.700;2024-02-23T10:23:36;12.30;;;2.50;;
64197;SDS011;50512;53.666;9.700;2024-02-23T10:26:04;9.55;;;2.42;;
64197;SDS011;50512;53.666;9.700;2024-02-23T10:28:30;17.70;;;2.70;;
64197;SDS011;50512;53.666;9.700;2024-02-23T10:30:57;10.68;;;2.78;;
64197;SDS011;50512;53.666;9.700;2024-02-23T10:33:26;7.47;;;1.83;;
64197;SDS011;50512;53.666;9.700;2024-02-23T10:35:55;8.65;;;2.45;;
64197;SDS011;50512;53.666;9.700;2024-02-23T10:38:23;11.05;;;1.83;;
64197;SDS011;50512;53.666;9.700;2024-02-23T10:40:51;11.38;;;3.75;;
64197;SDS011;50512;53.666;9.700;2024-02-23T10:43:21;8.18;;;2.35;;
64197;SDS011;50512;53.666;9.700;2024-02-23T10:45:56;6.93;;;1.83;;
64197;SDS011;50512;53.666;9.700;2024-02-23T10:48:23;16.90;;;2.90;;
64197;SDS011;50512;53.666;9.700;2024-02-23T10:50:51;5.32;;;2.20;;
64197;SDS011;50512;53.666;9.700;2024-02-23T10:53:17;7.68;;;2.65;;
64197;SDS011;50512;53.666;9.700;2024-02-23T10:55:45;9.85;;;2.95;;
64197;SDS011;50512;53.666;9.700;2024-02-23T10:58:14;6.95;;;2.70;;
64197;SDS011;50512;53.666;9.700;2024-02-23T11:00:41;5.47;;;1.98;;
64197;SDS011;50512;53.666;9.700;2024-02-23T11:03:10;8.95;;;2.95;;
64197;SDS011;50512;53.666;9.700;2024-02-23T11:05:37;4.55;;;3.15;;
64197;SDS011;50512;53.666;9.700;2024-02-23T11:08:05;18.08;;;3.53;;
64197;SDS011;50512;53.666;9.700;2024-02-23T11:10:40;10.88;;;4.25;;
64197;SDS011;50512;53.666;9.700;2024-02-23T11:13:07;9.23;;;3.42;;
64197;SDS011;50512;53.666;9.700;2024-02-23T11:15:35;8.38;;;3.15;;
64197;SDS011;50512;53.666;9.700;2024-02-23T11:18:20;4.70;;;2.65;;
64197;SDS011;50512;53.666;9.700;2024-02-23T11:20:53;9.68;;;2.85;;
64197;SDS011;50512;53.666;9.700;2024-02-23T11:23:21;11.75;;;3.63;;
64197;SDS011;50512;53.666;9.700;2024-02-23T11:25:58;8.60;;;2.88;;
64197;SDS011;50512;53.666;9.700;2024-02-23T11:28:25;8.82;;;2.97;;
64197;SDS011;50512;53.666;9.700;2024-02-23T11:30:53;8.25;;;4.80;;
64197;SDS011;50512;53.666;9.700;2024-02-23T11:33:26;5.75;;;2.08;;
64197;SDS011;50512;53.666;9.700;2024-02-23T11:35:52;9.30;;;1.90;;
64197;SDS011;50512;53.666;9.700;2024-02-23T11:38:20;11.80;;;2.92;;
64197;SDS011;50512;53.666;9.700;2024-02-23T11:40:47;5.32;;;2.17;;
64197;SDS011;50512;53.666;9.700;2024-02-23T11:43:14;7.53;;;2.15;;
64197;SDS011;50512;53.666;9.700;2024-02-23T11:45:46;9.88;;;1.98;;
64197;SDS011;50512;53.666;9.700;2024-02-23T11:48:14;6.10;;;1.90;;
64197;SDS011;50512;53.666;9.700;2024-02-23T11:50:41;3.17;;;1.83;;
64197;SDS011;50512;53.666;9.700;2024-02-23T11:53:07;9.30;;;2.25;;
64197;SDS011;50512;53.666;9.700;2024-02-23T11:55:35;7.93;;;1.90;;
64197;SDS011;50512;53.666;9.700;2024-02-23T11:58:01;17.30;;;2.03;;
64197;SDS011;50512;53.666;9.700;2024-02-23T12:00:28;8.35;;;2.10;;
64197;SDS011;50512;53.666;9.700;2024-02-23T12:02:55;8.45;;;1.98;;
64197;SDS011;50512;53.666;9.700;2024-02-23T12:05:23;6.00;;;2.30;;
64197;SDS011;50512;53.666;9.700;2024-02-23T12:07:49;6.18;;;2.05;;
64197;SDS011;50512;53.666;9.700;2024-02-23T12:10:16;8.77;;;2.40;;
64197;SDS011;50512;53.666;9.700;2024-02-23T12:12:42;8.40;;;3.53;;
64197;SDS011;50512;53.666;9.700;2024-02-23T12:15:09;3.22;;;1.65;;
64197;SDS011;50512;53.666;9.700;2024-02-23T12:17:35;4.90;;;1.75;;
64197;SDS011;50512;53.666;9.700;2024-02-23T12:20:02;9.25;;;2.97;;
64197;SDS011;50512;53.666;9.700;2024-02-23T12:22:31;13.35;;;2.67;;
64197;SDS011;50512;53.666;9.700;2024-02-23T12:24:57;6.13;;;2.75;;
64197;SDS011;50512;53.666;9.700;2024-02-23T12:27:24;6.38;;;2.17;;
64197;SDS011;50512;53.666;9.700;2024-02-23T12:29:51;8.73;;;2.22;;
64197;SDS011;50512;53.666;9.700;2024-02-23T12:32:19;7.70;;;2.17;;
64197;SDS011;50512;53.666;9.700;2024-02-23T12:34:46;3.72;;;1.40;;
64197;SDS011;50512;53.666;9.700;2024-02-23T12:37:14;4.88;;;1.73;;
64197;SDS011;50512;53.666;9.700;2024-02-23T12:39:42;4.18;;;1.58;;
64197;SDS011;50512;53.666;9.700;2024-02-23T12:42:08;4.40;;;1.85;;
64197;SDS011;50512;53.666;9.700;2024-02-23T12:44:35;5.93;;;1.90;;
64197;SDS011;50512;53.666;9.700;2024-02-23T12:47:01;6.10;;;1.70;;
64197;SDS011;50512;53.666;9.700;2024-02-23T12:49:28;3.45;;;1.60;;
64197;SDS011;50512;53.666;9.700;2024-02-23T12:51:55;5.70;;;1.85;;
64197;SDS011;50512;53.666;9.700;2024-02-23T12:54:22;5.88;;;2.67;;
64197;SDS011;50512;53.666;9.700;2024-02-23T12:56:49;5.38;;;1.77;;
64197;SDS011;50512;53.666;9.700;2024-02-23T12:59:16;5.70;;;1.65;;
64197;SDS011;50512;53.666;9.700;2024-02-23T13:01:43;4.15;;;1.75;;
64197;SDS011;50512;53.666;9.700;2024-02-23T13:04:10;7.07;;;2.08;;
64197;SDS011;50512;53.666;9.700;2024-02-23T13:06:38;2.75;;;1.33;;
64197;SDS011;50512;53.666;9.700;2024-02-23T13:09:05;3.17;;;1.60;;
64197;SDS011;50512;53.666;9.700;2024-02-23T13:11:34;4.47;;;1.80;;
64197;SDS011;50512;53.666;9.700;2024-02-23T13:14:02;6.85;;;2.25;;
64197;SDS011;50512;53.666;9.700;2024-02-23T13:16:28;5.88;;;2.30;;
64197;SDS011;50512;53.666;9.700;2024-02-23T13:18:55;11.25;;;1.88;;
64197;SDS011;50512;53.666;9.700;2024-02-23T13:21:21;6.53;;;1.55;;
64197;SDS011;50512;53.666;9.700;2024-02-23T13:23:49;6.70;;;1.75;;
64197;SDS011;50512;53.666;9.700;2024-02-23T13:26:15;8.25;;;1.85;;
64197;SDS011;50512;53.666;9.700;2024-02-23T13:28:42;6.70;;;1.77;;
64197;SDS011;50512;53.666;9.700;2024-02-23T13:31:10;7.70;;;2.00;;
64197;SDS011;50512;53.666;9.700;2024-02-23T13:33:38;6.68;;;1.90;;
64197;SDS011;50512;53.666;9.700;2024-02-23T13:36:05;2.38;;;1.70;;
64197;SDS011;50512;53.666;9.700;2024-02-23T13:38:32;2.53;;;1.30;;
64197;SDS011;50512;53.666;9.700;2024-02-23T13:41:03;3.38;;;1.52;;
64197;SDS011;50512;53.666;9.700;2024-02-23T13:43:29;6.13;;;1.80;;
64197;SDS011;50512;53.666;9.700;2024-02-23T13:45:56;5.35;;;1.48;;
64197;SDS011;50512;53.666;9.700;2024-02-23T13:48:24;3.25;;;1.30;;
64197;SDS011;50512;53.666;9.700;2024-02-23T13:50:50;4.45;;;1.40;;
64197;SDS011;50512;53.666;9.700;2024-02-23T13:53:17;4.25;;;1.50;;
64197;SDS011;50512;53.666;9.700;2024-02-23T13:55:43;7.35;;;1.23;;
64197;SDS011;50512;53.666;9.700;2024-02-23T13:58:10;5.05;;;1.83;;
64197;SDS011;50512;53.666;9.700;2024-02-23T14:00:37;3.42;;;1.10;;
64197;SDS011;50512;53.666;9.700;2024-02-23T14:03:03;2.78;;;1.52;;
64197;SDS011;50512;53.666;9.700;2024-02-23T14:05:32;5.05;;;1.75;;
64197;SDS011;50512;53.666;9.700;2024-02-23T14:07:59;3.85;;;1.42;;
64197;SDS011;50512;53.666;9.700;2024-02-23T14:10:25;3.88;;;1.42;;
64197;SDS011;50512;53.666;9.700;2024-02-23T14:12:52;3.83;;;0.98;;
64197;SDS011;50512;53.666;9.700;2024-02-23T14:15:20;1.80;;;1.05;;
64197;SDS011;50512;53.666;9.700;2024-02-23T14:17:46;11.15;;;1.83;;
64197;SDS011;50512;53.666;9.700;2024-02-23T14:20:14;6.75;;;1.63;;
64197;SDS011;50512;53.666;9.700;2024-02-23T14:22:42;9.40;;;2.55;;
64197;SDS011;50512;53.666;9.700;2024-02-23T14:25:08;1.63;;;1.05;;
64197;SDS011;50512;53.666;9.700;2024-02-23T14:27:35;8.07;;;1.50;;
64197;SDS011;50512;53.666;9.700;2024-02-23T14:30:01;3.72;;;1.15;;
64197;SDS011;50512;53.666;9.700;2024-02-23T14:32:28;4.05;;;1.63;;
64197;SDS011;50512;53.666;9.700;2024-02-23T14:34:54;5.55;;;2.58;;
64197;SDS011;50512;53.666;9.700;2024-02-23T14:37:22;1.67;;;1.23;;
64197;SDS011;50512;53.666;9.700;2024-02-23T14:39:50;6.18;;;1.77;;
64197;SDS011;50512;53.666;9.700;2024-02-23T14:42:17;3.03;;;0.98;;